ARG1468 SANT-SABE
Flight info
| Callsign | ARG1468 |
|---|---|
| Flight time | N/A |
| Altitude | 37000 |
| Route | PUBER3E PUBER UL550 ROS UT672 MULTA UW24 SNT SNT8Q |
| Aircraft | B738/M-SDE2E3FGHIRWXY/LB1 |
Departure
| Time | 2026-04-19 00:15 |
|---|---|
| Airport | Teniente Benjamín Matienzo International Airport (SANT) |
Arrival
| Time | N/A |
|---|---|
| Airport | Aeroparque Jorge Newbery (SABE) |
| Time | Latitude | Longitude | Altitude | Speed | Heading |
|---|---|---|---|---|---|
| 2026-04-18 23:43 | -26.83528 | -65.10751 | 1491 ft | 0 kts | 280° |
| 2026-04-19 00:07 | -26.83533 | -65.10729 | 1491 ft | 4 kts | 296° |
| 2026-04-19 00:07 | -26.83549 | -65.10707 | 1476 ft | 4 kts | 334° |
| 2026-04-19 00:08 | -26.83569 | -65.10702 | 1484 ft | 1 kts | 10° |
| 2026-04-19 00:08 | -26.83573 | -65.10703 | 1484 ft | 1 kts | 10° |
| 2026-04-19 00:11 | -26.83564 | -65.10701 | 1483 ft | 2 kts | 10° |
| 2026-04-19 00:11 | -26.83538 | -65.10696 | 1480 ft | 5 kts | 10° |
| 2026-04-19 00:11 | -26.83494 | -65.10686 | 1481 ft | 7 kts | 18° |
| 2026-04-19 00:11 | -26.83444 | -65.10652 | 1476 ft | 10 kts | 36° |
| 2026-04-19 00:12 | -26.83385 | -65.10599 | 1488 ft | 12 kts | 40° |
| 2026-04-19 00:12 | -26.83314 | -65.10532 | 1492 ft | 15 kts | 40° |
| 2026-04-19 00:12 | -26.83231 | -65.10454 | 1492 ft | 17 kts | 40° |
| 2026-04-19 00:12 | -26.83136 | -65.10366 | 1490 ft | 19 kts | 40° |
| 2026-04-19 00:13 | -26.83023 | -65.10279 | 1491 ft | 21 kts | 21° |
| 2026-04-19 00:13 | -26.82874 | -65.10246 | 1475 ft | 23 kts | 9° |
| 2026-04-19 00:13 | -26.82712 | -65.10214 | 1490 ft | 23 kts | 10° |
| 2026-04-19 00:13 | -26.82556 | -65.10183 | 1486 ft | 22 kts | 10° |
| 2026-04-19 00:14 | -26.82451 | -65.10192 | 1486 ft | 12 kts | 339° |
| 2026-04-19 00:14 | -26.82369 | -65.10197 | 1481 ft | 12 kts | 9° |
| 2026-04-19 00:14 | -26.82345 | -65.10153 | 1483 ft | 7 kts | 117° |
| 2026-04-19 00:14 | -26.82397 | -65.10152 | 1485 ft | 10 kts | 192° |
| 2026-04-19 00:15 | -26.82603 | -65.10193 | 1482 ft | 67 kts | 190° |
| 2026-04-19 00:15 | -26.83338 | -65.10337 | 1492 ft | 144 kts | 190° |
| 2026-04-19 00:15 | -26.84524 | -65.10571 | 1708 ft | 190 kts | 191° |
| 2026-04-19 00:15 | -26.85796 | -65.10819 | 2837 ft | 184 kts | 189° |
| 2026-04-19 00:16 | -26.87121 | -65.10850 | 3569 ft | 199 kts | 170° |
| 2026-04-19 00:16 | -26.88531 | -65.10384 | 3799 ft | 231 kts | 153° |
| 2026-04-19 00:16 | -26.89995 | -65.09446 | 4019 ft | 253 kts | 146° |
| 2026-04-19 00:16 | -26.91517 | -65.08348 | 4365 ft | 272 kts | 145° |
| 2026-04-19 00:17 | -26.93152 | -65.07152 | 4881 ft | 286 kts | 145° |
| 2026-04-19 00:17 | -26.94824 | -65.05943 | 5787 ft | 286 kts | 146° |
| 2026-04-19 00:17 | -26.96510 | -65.04739 | 6607 ft | 290 kts | 146° |
| 2026-04-19 00:17 | -26.98219 | -65.03530 | 7432 ft | 292 kts | 147° |
| 2026-04-19 00:18 | -26.99971 | -65.02300 | 8257 ft | 295 kts | 147° |
| 2026-04-19 00:18 | -27.01704 | -65.01089 | 9031 ft | 299 kts | 147° |
| 2026-04-19 00:18 | -27.03481 | -64.99852 | 9803 ft | 303 kts | 147° |
| 2026-04-19 00:18 | -27.05302 | -64.98585 | 10298 ft | 317 kts | 147° |
| 2026-04-19 00:19 | -27.07243 | -64.97235 | 10484 ft | 340 kts | 147° |
| 2026-04-19 00:19 | -27.09296 | -64.95810 | 10920 ft | 351 kts | 148° |
| 2026-04-19 00:19 | -27.11383 | -64.94362 | 11570 ft | 354 kts | 148° |
| 2026-04-19 00:19 | -27.13483 | -64.92906 | 12269 ft | 356 kts | 148° |
| 2026-04-19 00:20 | -27.15599 | -64.91438 | 12891 ft | 360 kts | 148° |
| 2026-04-19 00:20 | -27.17743 | -64.89950 | 13551 ft | 363 kts | 148° |
| 2026-04-19 00:20 | -27.19899 | -64.88452 | 14114 ft | 366 kts | 148° |
| 2026-04-19 00:20 | -27.22084 | -64.86935 | 14624 ft | 372 kts | 149° |
| 2026-04-19 00:21 | -27.24291 | -64.85400 | 15182 ft | 375 kts | 149° |
| 2026-04-19 00:21 | -27.26512 | -64.83855 | 15771 ft | 378 kts | 149° |
| 2026-04-19 00:21 | -27.28756 | -64.82294 | 16338 ft | 381 kts | 149° |
| 2026-04-19 00:21 | -27.31022 | -64.80717 | 16882 ft | 385 kts | 150° |
| 2026-04-19 00:22 | -27.33318 | -64.79118 | 17432 ft | 389 kts | 150° |
| 2026-04-19 00:22 | -27.35628 | -64.77508 | 17986 ft | 393 kts | 150° |
| 2026-04-19 00:22 | -27.37961 | -64.75881 | 18477 ft | 396 kts | 150° |
| 2026-04-19 00:22 | -27.40311 | -64.74241 | 18960 ft | 399 kts | 150° |
| 2026-04-19 00:23 | -27.42684 | -64.72585 | 19452 ft | 403 kts | 150° |
| 2026-04-19 00:23 | -27.45076 | -64.70914 | 19945 ft | 406 kts | 150° |
| 2026-04-19 00:23 | -27.47486 | -64.69229 | 20440 ft | 409 kts | 150° |
| 2026-04-19 00:23 | -27.49912 | -64.67533 | 20930 ft | 413 kts | 150° |
| 2026-04-19 00:24 | -27.52359 | -64.65822 | 21429 ft | 416 kts | 150° |
| 2026-04-19 00:24 | -27.54833 | -64.64110 | 21901 ft | 419 kts | 151° |
| 2026-04-19 00:24 | -27.57346 | -64.62416 | 22377 ft | 422 kts | 152° |
| 2026-04-19 00:24 | -27.59885 | -64.60722 | 22851 ft | 425 kts | 152° |
| 2026-04-19 00:25 | -27.62437 | -64.59022 | 23329 ft | 428 kts | 152° |
| 2026-04-19 00:25 | -27.65010 | -64.57305 | 23725 ft | 431 kts | 152° |
| 2026-04-19 00:25 | -27.67596 | -64.55575 | 24120 ft | 434 kts | 152° |
| 2026-04-19 00:25 | -27.70200 | -64.53828 | 24518 ft | 436 kts | 152° |
| 2026-04-19 00:26 | -27.72784 | -64.52092 | 24905 ft | 439 kts | 152° |
| 2026-04-19 00:26 | -27.75421 | -64.50318 | 25285 ft | 442 kts | 152° |
| 2026-04-19 00:26 | -27.78067 | -64.48535 | 25672 ft | 445 kts | 152° |
| 2026-04-19 00:26 | -27.80733 | -64.46739 | 26051 ft | 447 kts | 152° |
| 2026-04-19 00:27 | -27.83411 | -64.44933 | 26420 ft | 450 kts | 152° |
| 2026-04-19 00:27 | -27.86108 | -64.43113 | 26777 ft | 453 kts | 152° |
| 2026-04-19 00:27 | -27.88819 | -64.41283 | 27134 ft | 456 kts | 153° |
| 2026-04-19 00:27 | -27.91550 | -64.39439 | 27480 ft | 458 kts | 153° |
| 2026-04-19 00:28 | -27.94295 | -64.37583 | 27816 ft | 461 kts | 153° |
| 2026-04-19 00:28 | -27.97052 | -64.35719 | 28148 ft | 464 kts | 153° |
| 2026-04-19 00:28 | -27.99451 | -64.34096 | 28439 ft | 466 kts | 153° |
| 2026-04-19 00:28 | -28.02244 | -64.32205 | 28764 ft | 469 kts | 153° |
| 2026-04-19 00:29 | -28.05051 | -64.30303 | 29082 ft | 471 kts | 153° |
| 2026-04-19 00:29 | -28.07873 | -64.28390 | 29387 ft | 474 kts | 153° |
| 2026-04-19 00:29 | -28.10713 | -64.26463 | 29684 ft | 477 kts | 153° |
| 2026-04-19 00:29 | -28.13325 | -64.24690 | 29937 ft | 478 kts | 153° |
| 2026-04-19 00:30 | -28.16181 | -64.22750 | 30164 ft | 481 kts | 153° |
| 2026-04-19 00:30 | -28.19057 | -64.20795 | 30445 ft | 482 kts | 153° |
| 2026-04-19 00:30 | -28.21666 | -64.19020 | 30711 ft | 483 kts | 153° |
| 2026-04-19 00:30 | -28.24547 | -64.17060 | 31006 ft | 484 kts | 153° |
| 2026-04-19 00:31 | -28.27432 | -64.15096 | 31347 ft | 483 kts | 153° |
| 2026-04-19 00:31 | -28.30308 | -64.13138 | 31745 ft | 481 kts | 153° |
| 2026-04-19 00:31 | -28.33167 | -64.11190 | 32144 ft | 479 kts | 153° |
| 2026-04-19 00:31 | -28.36024 | -64.09243 | 32506 ft | 478 kts | 153° |
| 2026-04-19 00:32 | -28.38827 | -64.07332 | 32826 ft | 477 kts | 153° |
| 2026-04-19 00:32 | -28.41716 | -64.05361 | 33189 ft | 476 kts | 153° |
| 2026-04-19 00:32 | -28.44550 | -64.03425 | 33564 ft | 474 kts | 153° |
| 2026-04-19 00:32 | -28.47374 | -64.01494 | 33897 ft | 473 kts | 153° |
| 2026-04-19 00:33 | -28.50193 | -63.99567 | 34157 ft | 473 kts | 153° |
| 2026-04-19 00:33 | -28.53013 | -63.97638 | 34389 ft | 473 kts | 153° |
| 2026-04-19 00:33 | -28.55834 | -63.95707 | 34637 ft | 473 kts | 153° |
| 2026-04-19 00:33 | -28.58652 | -63.93777 | 34901 ft | 473 kts | 153° |
| 2026-04-19 00:34 | -28.64279 | -63.89917 | 35407 ft | 472 kts | 153° |
| 2026-04-19 00:34 | -28.67089 | -63.87988 | 35653 ft | 471 kts | 153° |
| 2026-04-19 00:34 | -28.69894 | -63.86061 | 35918 ft | 471 kts | 153° |
| 2026-04-19 00:35 | -28.72696 | -63.84135 | 36153 ft | 470 kts | 153° |
| 2026-04-19 00:35 | -28.75492 | -63.82212 | 36373 ft | 470 kts | 153° |
| 2026-04-19 00:35 | -28.78294 | -63.80283 | 36599 ft | 470 kts | 153° |
| 2026-04-19 00:35 | -28.81091 | -63.78357 | 36781 ft | 470 kts | 153° |
| 2026-04-19 00:36 | -28.86709 | -63.74463 | 36779 ft | 472 kts | 153° |
| 2026-04-19 00:36 | -28.92255 | -63.70602 | 36769 ft | 468 kts | 153° |
| 2026-04-19 00:37 | -28.97793 | -63.66746 | 36779 ft | 465 kts | 153° |
| 2026-04-19 00:37 | -29.03296 | -63.62912 | 36780 ft | 463 kts | 153° |
| 2026-04-19 00:38 | -29.08794 | -63.59078 | 36789 ft | 462 kts | 153° |
| 2026-04-19 00:38 | -29.14279 | -63.55243 | 36799 ft | 463 kts | 152° |
| 2026-04-19 00:39 | -29.19784 | -63.51387 | 36798 ft | 465 kts | 152° |
| 2026-04-19 00:39 | -29.25321 | -63.47503 | 36809 ft | 467 kts | 152° |
| 2026-04-19 00:40 | -29.29936 | -63.44261 | 36806 ft | 469 kts | 152° |
| 2026-04-19 00:40 | -29.35520 | -63.40334 | 36809 ft | 472 kts | 152° |
| 2026-04-19 00:41 | -29.41122 | -63.36389 | 36803 ft | 473 kts | 152° |
| 2026-04-19 00:41 | -29.46731 | -63.32433 | 36800 ft | 474 kts | 152° |
| 2026-04-19 00:42 | -29.52343 | -63.28459 | 36799 ft | 474 kts | 152° |
| 2026-04-19 00:42 | -29.57951 | -63.24477 | 36800 ft | 473 kts | 152° |
| 2026-04-19 00:43 | -29.63543 | -63.20501 | 36798 ft | 472 kts | 152° |
| 2026-04-19 00:43 | -29.69122 | -63.16530 | 36800 ft | 471 kts | 152° |
| 2026-04-19 00:44 | -29.74684 | -63.12567 | 36797 ft | 470 kts | 152° |
| 2026-04-19 00:44 | -29.80232 | -63.08608 | 36800 ft | 469 kts | 152° |
| 2026-04-19 00:45 | -29.85771 | -63.04651 | 36804 ft | 468 kts | 152° |
| 2026-04-19 00:45 | -29.91304 | -63.00692 | 36803 ft | 468 kts | 152° |
| 2026-04-19 00:46 | -29.96826 | -62.96737 | 36804 ft | 468 kts | 152° |
| 2026-04-19 00:46 | -30.02361 | -62.92766 | 36803 ft | 468 kts | 152° |
| 2026-04-19 00:47 | -30.07899 | -62.88789 | 36810 ft | 469 kts | 152° |
| 2026-04-19 00:47 | -30.13449 | -62.84797 | 36806 ft | 470 kts | 152° |
| 2026-04-19 00:48 | -30.19005 | -62.80795 | 36810 ft | 471 kts | 152° |
| 2026-04-19 00:48 | -30.24572 | -62.76780 | 36808 ft | 472 kts | 152° |
| 2026-04-19 00:49 | -30.30150 | -62.72750 | 36810 ft | 473 kts | 152° |
| 2026-04-19 00:49 | -30.35695 | -62.68740 | 36808 ft | 474 kts | 152° |
| 2026-04-19 00:50 | -30.41288 | -62.64690 | 36816 ft | 474 kts | 152° |
| 2026-04-19 00:50 | -30.46888 | -62.60628 | 36815 ft | 475 kts | 152° |
| 2026-04-19 00:51 | -30.52455 | -62.56580 | 36802 ft | 467 kts | 152° |
| 2026-04-19 00:51 | -30.57933 | -62.52592 | 36810 ft | 463 kts | 153° |
| 2026-04-19 00:52 | -30.63378 | -62.48627 | 36818 ft | 461 kts | 153° |
| 2026-04-19 00:52 | -30.68800 | -62.44672 | 36823 ft | 460 kts | 153° |
| 2026-04-19 00:53 | -30.74213 | -62.40718 | 36825 ft | 460 kts | 153° |
| 2026-04-19 00:53 | -30.79627 | -62.36762 | 36827 ft | 461 kts | 153° |
| 2026-04-19 00:54 | -30.85080 | -62.32813 | 36831 ft | 462 kts | 153° |
| 2026-04-19 00:54 | -30.90556 | -62.28849 | 36837 ft | 465 kts | 153° |
| 2026-04-19 00:55 | -30.96059 | -62.24853 | 36832 ft | 467 kts | 153° |
| 2026-04-19 00:55 | -31.01550 | -62.20859 | 36833 ft | 469 kts | 153° |
| 2026-04-19 00:56 | -31.07096 | -62.16818 | 36832 ft | 471 kts | 153° |
| 2026-04-19 00:56 | -31.12660 | -62.12753 | 36833 ft | 472 kts | 153° |
| 2026-04-19 00:57 | -31.18227 | -62.08680 | 36834 ft | 472 kts | 153° |
| 2026-04-19 00:57 | -31.23783 | -62.04588 | 36832 ft | 472 kts | 153° |
| 2026-04-19 00:58 | -31.29322 | -62.00464 | 36832 ft | 471 kts | 153° |
| 2026-04-19 00:58 | -31.34845 | -61.96343 | 36832 ft | 470 kts | 153° |
| 2026-04-19 00:59 | -31.40361 | -61.92227 | 36836 ft | 470 kts | 153° |
| 2026-04-19 00:59 | -31.45862 | -61.88118 | 36834 ft | 469 kts | 153° |
| 2026-04-19 01:00 | -31.51359 | -61.84008 | 36827 ft | 468 kts | 153° |
| 2026-04-19 01:00 | -31.56846 | -61.79899 | 36838 ft | 468 kts | 153° |
| 2026-04-19 01:01 | -31.62323 | -61.75791 | 36854 ft | 467 kts | 153° |
| 2026-04-19 01:01 | -31.67802 | -61.71677 | 36837 ft | 468 kts | 153° |
| 2026-04-19 01:02 | -31.73281 | -61.67556 | 36836 ft | 468 kts | 153° |
| 2026-04-19 01:02 | -31.78496 | -61.63628 | 36837 ft | 468 kts | 153° |
| 2026-04-19 01:03 | -31.83986 | -61.59486 | 36843 ft | 469 kts | 153° |
| 2026-04-19 01:03 | -31.88896 | -61.55779 | 36844 ft | 469 kts | 153° |
| 2026-04-19 01:04 | -31.94402 | -61.51623 | 36845 ft | 470 kts | 153° |
| 2026-04-19 01:04 | -31.99907 | -61.47465 | 36845 ft | 470 kts | 153° |
| 2026-04-19 01:05 | -32.05413 | -61.43298 | 36843 ft | 471 kts | 153° |
| 2026-04-19 01:05 | -32.10927 | -61.39119 | 36841 ft | 471 kts | 153° |
| 2026-04-19 01:06 | -32.16434 | -61.34937 | 36842 ft | 471 kts | 153° |
| 2026-04-19 01:06 | -32.21954 | -61.30740 | 36843 ft | 471 kts | 153° |
| 2026-04-19 01:07 | -32.27469 | -61.26541 | 36842 ft | 471 kts | 153° |
| 2026-04-19 01:07 | -32.32819 | -61.22461 | 36842 ft | 471 kts | 153° |
| 2026-04-19 01:08 | -32.38320 | -61.18260 | 36844 ft | 471 kts | 153° |
| 2026-04-19 01:08 | -32.43815 | -61.14058 | 36842 ft | 470 kts | 153° |
| 2026-04-19 01:09 | -32.49033 | -61.10061 | 36839 ft | 469 kts | 153° |
| 2026-04-19 01:09 | -32.54513 | -61.05858 | 36845 ft | 469 kts | 153° |
| 2026-04-19 01:10 | -32.59983 | -61.01657 | 36846 ft | 468 kts | 153° |
| 2026-04-19 01:10 | -32.65398 | -60.97492 | 36839 ft | 468 kts | 153° |
| 2026-04-19 01:11 | -32.70886 | -60.93268 | 36852 ft | 474 kts | 153° |
| 2026-04-19 01:11 | -32.76463 | -60.88967 | 36839 ft | 480 kts | 153° |
| 2026-04-19 01:12 | -32.81788 | -60.84053 | 36303 ft | 499 kts | 137° |
| 2026-04-19 01:12 | -32.84078 | -60.80965 | 35819 ft | 497 kts | 136° |
| 2026-04-19 01:12 | -32.86336 | -60.77864 | 35369 ft | 493 kts | 136° |
| 2026-04-19 01:13 | -32.88573 | -60.74789 | 34954 ft | 490 kts | 136° |
| 2026-04-19 01:13 | -32.90800 | -60.71744 | 34532 ft | 486 kts | 136° |
| 2026-04-19 01:13 | -32.93023 | -60.68725 | 34084 ft | 484 kts | 137° |
| 2026-04-19 01:13 | -32.95246 | -60.65722 | 33646 ft | 481 kts | 137° |
| 2026-04-19 01:14 | -32.97454 | -60.62745 | 33181 ft | 478 kts | 137° |
| 2026-04-19 01:14 | -32.99651 | -60.59787 | 32747 ft | 475 kts | 137° |
| 2026-04-19 01:14 | -33.01834 | -60.56847 | 32326 ft | 472 kts | 137° |
| 2026-04-19 01:14 | -33.04003 | -60.53923 | 31911 ft | 469 kts | 137° |
| 2026-04-19 01:15 | -33.06157 | -60.51016 | 31505 ft | 466 kts | 137° |
| 2026-04-19 01:15 | -33.08294 | -60.48129 | 31102 ft | 463 kts | 137° |
| 2026-04-19 01:15 | -33.10420 | -60.45255 | 30673 ft | 462 kts | 137° |
| 2026-04-19 01:15 | -33.12541 | -60.42384 | 30271 ft | 459 kts | 137° |
| 2026-04-19 01:16 | -33.14355 | -60.39928 | 29907 ft | 458 kts | 137° |
| 2026-04-19 01:16 | -33.16457 | -60.37079 | 29448 ft | 456 kts | 137° |
| 2026-04-19 01:16 | -33.18541 | -60.34250 | 29007 ft | 452 kts | 137° |
| 2026-04-19 01:16 | -33.20611 | -60.31439 | 28585 ft | 449 kts | 137° |
| 2026-04-19 01:17 | -33.21966 | -60.29598 | 28302 ft | 447 kts | 137° |
| 2026-04-19 01:17 | -33.24035 | -60.26785 | 27878 ft | 443 kts | 137° |
| 2026-04-19 01:17 | -33.26064 | -60.24024 | 27468 ft | 440 kts | 136° |
| 2026-04-19 01:17 | -33.28050 | -60.21319 | 27062 ft | 437 kts | 136° |
| 2026-04-19 01:18 | -33.30076 | -60.18559 | 26654 ft | 434 kts | 136° |
| 2026-04-19 01:18 | -33.32031 | -60.15893 | 26261 ft | 431 kts | 136° |
| 2026-04-19 01:18 | -33.34001 | -60.13205 | 25864 ft | 428 kts | 136° |
| 2026-04-19 01:18 | -33.35958 | -60.10533 | 25469 ft | 426 kts | 136° |
| 2026-04-19 01:19 | -33.37902 | -60.07877 | 25071 ft | 423 kts | 136° |
| 2026-04-19 01:19 | -33.39838 | -60.05230 | 24659 ft | 421 kts | 136° |
| 2026-04-19 01:19 | -33.41766 | -60.02592 | 24257 ft | 420 kts | 136° |
| 2026-04-19 01:19 | -33.43679 | -59.99973 | 23862 ft | 418 kts | 136° |
| 2026-04-19 01:20 | -33.45588 | -59.97355 | 23458 ft | 416 kts | 135° |
| 2026-04-19 01:20 | -33.47484 | -59.94755 | 23007 ft | 414 kts | 135° |
| 2026-04-19 01:20 | -33.49372 | -59.92163 | 22584 ft | 411 kts | 135° |
| 2026-04-19 01:20 | -33.51239 | -59.89598 | 22182 ft | 407 kts | 135° |
| 2026-04-19 01:21 | -33.53094 | -59.87047 | 21790 ft | 404 kts | 135° |
| 2026-04-19 01:21 | -33.54933 | -59.84517 | 21400 ft | 401 kts | 135° |
| 2026-04-19 01:21 | -33.56758 | -59.82003 | 21028 ft | 398 kts | 135° |
| 2026-04-19 01:21 | -33.58566 | -59.79513 | 20641 ft | 395 kts | 135° |
| 2026-04-19 01:22 | -33.60363 | -59.77036 | 20263 ft | 392 kts | 135° |
| 2026-04-19 01:22 | -33.62149 | -59.74573 | 19888 ft | 390 kts | 135° |
| 2026-04-19 01:22 | -33.63918 | -59.72131 | 19514 ft | 387 kts | 135° |
| 2026-04-19 01:22 | -33.65682 | -59.69696 | 19140 ft | 385 kts | 135° |
| 2026-04-19 01:23 | -33.67435 | -59.67273 | 18752 ft | 384 kts | 135° |
| 2026-04-19 01:23 | -33.69158 | -59.64890 | 18394 ft | 382 kts | 134° |
| 2026-04-19 01:23 | -33.70918 | -59.62454 | 17984 ft | 380 kts | 134° |
| 2026-04-19 01:23 | -33.72624 | -59.60092 | 17579 ft | 378 kts | 134° |
| 2026-04-19 01:24 | -33.74337 | -59.57717 | 17198 ft | 375 kts | 134° |
| 2026-04-19 01:24 | -33.76038 | -59.55357 | 16826 ft | 372 kts | 134° |
| 2026-04-19 01:24 | -33.77727 | -59.53013 | 16465 ft | 369 kts | 134° |
| 2026-04-19 01:24 | -33.79401 | -59.50688 | 16104 ft | 366 kts | 134° |
| 2026-04-19 01:25 | -33.81058 | -59.48386 | 15745 ft | 363 kts | 134° |
| 2026-04-19 01:25 | -33.82707 | -59.46093 | 15389 ft | 361 kts | 134° |
| 2026-04-19 01:25 | -33.84339 | -59.43822 | 15045 ft | 358 kts | 134° |
| 2026-04-19 01:25 | -33.85963 | -59.41561 | 14700 ft | 356 kts | 133° |
| 2026-04-19 01:26 | -33.87574 | -59.39317 | 14353 ft | 353 kts | 133° |
| 2026-04-19 01:26 | -33.89175 | -59.37086 | 14004 ft | 351 kts | 133° |
| 2026-04-19 01:26 | -33.90764 | -59.34870 | 13662 ft | 349 kts | 133° |
| 2026-04-19 01:26 | -33.92345 | -59.32663 | 13285 ft | 347 kts | 133° |
| 2026-04-19 01:27 | -33.93407 | -59.31180 | 13033 ft | 345 kts | 133° |
| 2026-04-19 01:27 | -33.94967 | -59.29000 | 12681 ft | 343 kts | 133° |
| 2026-04-19 01:27 | -33.96514 | -59.26837 | 12331 ft | 340 kts | 132° |
| 2026-04-19 01:27 | -33.98033 | -59.24712 | 11995 ft | 337 kts | 132° |
| 2026-04-19 01:28 | -33.99576 | -59.22552 | 11657 ft | 335 kts | 132° |
| 2026-04-19 01:28 | -34.01070 | -59.20460 | 11326 ft | 332 kts | 132° |
| 2026-04-19 01:28 | -34.02592 | -59.18328 | 10998 ft | 330 kts | 131° |
| 2026-04-19 01:28 | -34.04063 | -59.16264 | 10669 ft | 328 kts | 131° |
| 2026-04-19 01:29 | -34.05544 | -59.14186 | 10351 ft | 326 kts | 131° |
| 2026-04-19 01:29 | -34.07015 | -59.12121 | 10090 ft | 322 kts | 131° |
| 2026-04-19 01:29 | -34.08452 | -59.10102 | 9958 ft | 313 kts | 131° |
| 2026-04-19 01:29 | -34.09852 | -59.08134 | 9762 ft | 307 kts | 131° |
| 2026-04-19 01:30 | -34.11241 | -59.06181 | 9439 ft | 306 kts | 131° |
| 2026-04-19 01:30 | -34.12621 | -59.04239 | 9144 ft | 303 kts | 130° |
| 2026-04-19 01:30 | -34.13991 | -59.02311 | 8857 ft | 301 kts | 130° |
| 2026-04-19 01:30 | -34.15347 | -59.00401 | 8565 ft | 299 kts | 130° |
| 2026-04-19 01:31 | -34.16696 | -58.98500 | 8280 ft | 297 kts | 130° |
| 2026-04-19 01:31 | -34.18037 | -58.96608 | 7984 ft | 295 kts | 130° |
| 2026-04-19 01:31 | -34.19366 | -58.94733 | 7712 ft | 293 kts | 130° |
| 2026-04-19 01:31 | -34.20688 | -58.92867 | 7430 ft | 291 kts | 130° |
| 2026-04-19 01:32 | -34.22003 | -58.91010 | 7161 ft | 290 kts | 130° |
| 2026-04-19 01:32 | -34.23307 | -58.89166 | 6887 ft | 288 kts | 130° |
| 2026-04-19 01:32 | -34.24606 | -58.87329 | 6610 ft | 287 kts | 130° |
| 2026-04-19 01:32 | -34.25899 | -58.85499 | 6324 ft | 286 kts | 130° |
| 2026-04-19 01:33 | -34.27186 | -58.83678 | 6042 ft | 285 kts | 130° |
| 2026-04-19 01:33 | -34.28469 | -58.81861 | 5743 ft | 284 kts | 130° |
| 2026-04-19 01:33 | -34.29748 | -58.80049 | 5455 ft | 283 kts | 130° |
| 2026-04-19 01:33 | -34.31020 | -58.78246 | 5168 ft | 281 kts | 130° |
| 2026-04-19 01:34 | -34.32288 | -58.76449 | 4927 ft | 279 kts | 130° |
| 2026-04-19 01:34 | -34.33455 | -58.74900 | 4873 ft | 275 kts | 134° |
| 2026-04-19 01:34 | -34.34771 | -58.73273 | 4849 ft | 265 kts | 134° |
| 2026-04-19 01:34 | -34.36031 | -58.71731 | 4542 ft | 265 kts | 134° |
| 2026-04-19 01:35 | -34.37337 | -58.70129 | 4205 ft | 266 kts | 134° |
| 2026-04-19 01:35 | -34.38617 | -58.68548 | 4035 ft | 255 kts | 134° |
| 2026-04-19 01:35 | -34.39813 | -58.67065 | 3936 ft | 238 kts | 134° |
| 2026-04-19 01:35 | -34.40928 | -58.65680 | 3818 ft | 222 kts | 133° |